createdAt,value
2023-05-17T00:01:04.296Z,15.74
2023-05-17T00:04:06.310Z,15.68
2023-05-17T00:07:08.380Z,15.62
2023-05-17T00:10:10.748Z,15.54
2023-05-17T00:13:12.646Z,15.49
2023-05-17T00:16:14.666Z,15.41
2023-05-17T00:19:16.760Z,15.33
2023-05-17T00:22:18.780Z,15.24
2023-05-17T00:25:20.675Z,15.15
2023-05-17T00:28:22.571Z,15.03
2023-05-17T00:31:26.025Z,14.92
2023-05-17T00:34:28.337Z,14.82
2023-05-17T00:37:30.246Z,14.74
2023-05-17T00:40:32.168Z,14.68
2023-05-17T00:43:34.498Z,14.64
2023-05-17T00:46:36.538Z,14.60
2023-05-17T00:49:38.617Z,14.54
2023-05-17T00:52:40.754Z,14.45
2023-05-17T00:55:46.383Z,14.44
2023-05-17T00:58:48.644Z,14.39
2023-05-17T01:01:51.652Z,14.34
2023-05-17T01:04:53.858Z,14.29
2023-05-17T01:07:55.869Z,14.24
2023-05-17T01:11:16.968Z,14.20
2023-05-17T01:14:48.450Z,14.13
2023-05-17T01:17:59.680Z,14.06
2023-05-17T01:21:07.480Z,13.95
2023-05-17T01:24:35.332Z,13.90
2023-05-17T01:27:41.425Z,13.80
2023-05-17T01:30:46.575Z,13.73
2023-05-17T01:33:48.756Z,13.67
2023-05-17T01:36:50.739Z,13.63
2023-05-17T01:39:52.860Z,13.61
2023-05-17T01:43:00.568Z,13.57
2023-05-17T01:46:28.659Z,13.52
2023-05-17T01:49:32.586Z,13.48
2023-05-17T01:52:51.525Z,13.46
2023-05-17T01:56:04.793Z,13.45
2023-05-17T01:59:07.463Z,13.43
2023-05-17T02:02:09.661Z,13.43
2023-05-17T02:05:11.879Z,13.40
2023-05-17T02:08:15.351Z,13.34
2023-05-17T02:11:17.470Z,13.29
2023-05-17T02:14:19.368Z,13.24
2023-05-17T02:17:21.301Z,13.26
2023-05-17T02:20:23.371Z,13.25
2023-05-17T02:23:27.414Z,13.21
2023-05-17T02:26:29.383Z,13.21
2023-05-17T02:29:31.868Z,13.19
2023-05-17T02:32:34.933Z,13.19
2023-05-17T02:35:37.011Z,13.19
2023-05-17T02:38:39.549Z,13.17
2023-05-17T02:41:41.462Z,13.18
2023-05-17T02:44:43.444Z,13.16
2023-05-17T02:47:45.479Z,13.17
2023-05-17T02:50:47.528Z,13.20
2023-05-17T02:53:49.518Z,13.19
2023-05-17T02:56:52.028Z,13.19
2023-05-17T02:59:53.929Z,13.23
2023-05-17T03:02:56.013Z,13.23
2023-05-17T03:06:02.685Z,13.23
2023-05-17T03:09:04.760Z,13.25
2023-05-17T03:12:08.612Z,13.29
2023-05-17T03:15:11.212Z,13.35
2023-05-17T03:18:13.239Z,13.43
2023-05-17T03:21:15.824Z,13.49
2023-05-17T03:24:18.417Z,13.54
2023-05-17T03:27:20.663Z,13.59
2023-05-17T03:30:23.331Z,13.64
2023-05-17T03:33:26.058Z,13.68
2023-05-17T03:36:28.561Z,13.79
2023-05-17T03:39:31.415Z,13.91
2023-05-17T03:42:33.557Z,14.10
2023-05-17T03:45:35.899Z,14.31
2023-05-17T03:48:37.863Z,14.49
2023-05-17T03:51:40.505Z,14.76
2023-05-17T03:54:42.589Z,15.06
2023-05-17T03:57:44.685Z,15.15
2023-05-17T04:00:46.852Z,15.21
2023-05-17T04:03:52.701Z,15.32
2023-05-17T04:06:56.729Z,15.47
2023-05-17T04:09:59.576Z,15.64
2023-05-17T04:13:04.172Z,15.69
2023-05-17T04:16:07.888Z,15.93
2023-05-17T04:19:11.323Z,16.10
2023-05-17T04:22:14.557Z,16.31
2023-05-17T04:25:18.610Z,16.62
2023-05-17T04:28:22.234Z,16.86
2023-05-17T04:31:24.243Z,17.18
2023-05-17T04:34:26.437Z,17.62
2023-05-17T04:37:31.091Z,18.09
2023-05-17T04:40:37.799Z,18.34
2023-05-17T04:43:40.459Z,18.42
2023-05-17T04:46:48.185Z,18.63
2023-05-17T04:49:51.577Z,18.89
2023-05-17T04:52:53.594Z,19.09
2023-05-17T04:55:55.796Z,19.43
2023-05-17T04:58:58.207Z,19.62
2023-05-17T05:02:00.278Z,19.90
2023-05-17T05:05:05.124Z,20.08
2023-05-17T05:08:09.538Z,20.37
2023-05-17T05:11:11.655Z,20.71
2023-05-17T05:14:13.812Z,20.98
2023-05-17T05:17:16.368Z,21.23
2023-05-17T05:20:18.598Z,21.38
2023-05-17T05:23:20.701Z,21.41
2023-05-17T05:26:24.219Z,21.53
2023-05-17T05:29:26.889Z,21.75
2023-05-17T05:32:28.899Z,21.89
2023-05-17T05:35:31.065Z,21.96
2023-05-17T05:38:34.501Z,22.20
2023-05-17T05:41:37.158Z,22.27
2023-05-17T05:44:39.179Z,22.30
2023-05-17T05:47:41.296Z,22.33
2023-05-17T05:50:44.425Z,22.70
2023-05-17T05:53:46.511Z,22.70
2023-05-17T05:56:49.323Z,22.95
2023-05-17T05:59:53.649Z,23.02
2023-05-17T06:02:57.556Z,23.16
2023-05-17T06:05:59.733Z,23.17
2023-05-17T06:09:01.795Z,23.35
2023-05-17T06:12:03.842Z,23.49
2023-05-17T06:15:08.310Z,23.67
2023-05-17T06:18:10.418Z,23.50
2023-05-17T06:21:15.438Z,23.62
2023-05-17T06:24:19.255Z,23.87
2023-05-17T06:27:21.365Z,23.77
2023-05-17T06:30:23.196Z,24.03
2023-05-17T06:33:25.336Z,24.16
2023-05-17T06:36:27.359Z,24.22
2023-05-17T06:39:29.282Z,24.43
2023-05-17T06:42:31.251Z,24.51
2023-05-17T06:45:33.197Z,24.54
2023-05-17T06:48:35.272Z,24.78
2023-05-17T06:51:37.250Z,24.90
2023-05-17T06:54:39.224Z,25.04
2023-05-17T06:57:41.139Z,24.84
2023-05-17T07:00:43.133Z,24.86
2023-05-17T07:03:45.193Z,24.77
2023-05-17T07:06:47.323Z,24.99
2023-05-17T07:09:49.248Z,25.32
2023-05-17T07:12:51.236Z,25.00
2023-05-17T07:15:53.237Z,25.11
2023-05-17T07:18:55.218Z,25.34
2023-05-17T07:21:57.445Z,25.01
2023-05-17T07:24:59.345Z,25.21
2023-05-17T07:28:01.287Z,25.20
2023-05-17T07:31:03.257Z,25.25
2023-05-17T07:34:05.359Z,25.49
2023-05-17T07:37:07.629Z,25.52
2023-05-17T07:40:10.164Z,25.74
2023-05-17T07:43:12.112Z,25.77
2023-05-17T07:46:13.975Z,25.78
2023-05-17T07:49:16.048Z,25.85
2023-05-17T07:52:18.046Z,25.91
2023-05-17T07:55:20.732Z,26.03
2023-05-17T07:58:22.717Z,26.10
2023-05-17T08:01:27.175Z,25.74
2023-05-17T08:04:29.217Z,25.98
2023-05-17T08:07:31.115Z,26.13
2023-05-17T08:10:36.269Z,26.29
2023-05-17T08:13:38.504Z,26.47
2023-05-17T08:16:41.395Z,26.31
2023-05-17T08:19:43.493Z,26.45
2023-05-17T08:22:45.459Z,26.23
2023-05-17T08:25:47.349Z,26.05
2023-05-17T08:28:49.321Z,26.10
2023-05-17T08:31:52.898Z,26.31
2023-05-17T08:34:55.820Z,26.38
2023-05-17T08:37:57.910Z,26.27
2023-05-17T08:41:00.129Z,26.34
2023-05-17T08:44:03.762Z,26.54
2023-05-17T08:47:07.170Z,26.46
2023-05-17T08:50:09.638Z,26.29
2023-05-17T08:53:12.274Z,26.29
2023-05-17T08:56:16.744Z,26.50
2023-05-17T08:59:21.536Z,26.85
2023-05-17T09:02:23.564Z,26.94
2023-05-17T09:05:25.684Z,27.07
2023-05-17T09:08:30.234Z,27.05
2023-05-17T09:11:35.347Z,27.31
2023-05-17T09:14:37.296Z,27.46
2023-05-17T09:17:40.888Z,27.43
2023-05-17T09:20:43.474Z,27.41
2023-05-17T09:23:57.696Z,27.27
2023-05-17T09:27:07.320Z,27.41
2023-05-17T09:30:12.791Z,27.46
2023-05-17T09:33:17.644Z,27.40
2023-05-17T09:36:23.256Z,27.36
2023-05-17T09:39:25.582Z,27.39
2023-05-17T09:42:27.745Z,27.31
2023-05-17T09:45:32.495Z,27.52
2023-05-17T09:48:38.703Z,27.92
2023-05-17T09:51:43.605Z,27.94
2023-05-17T09:54:52.890Z,27.52
2023-05-17T09:58:03.404Z,27.40
2023-05-17T10:01:07.498Z,27.19
2023-05-17T10:04:11.168Z,27.17
2023-05-17T10:07:14.885Z,27.23
2023-05-17T10:10:18.355Z,27.46
2023-05-17T10:13:30.488Z,27.90
2023-05-17T10:16:34.361Z,27.80
2023-05-17T10:19:38.020Z,27.95
2023-05-17T10:22:40.406Z,27.98
2023-05-17T10:25:43.242Z,27.99
2023-05-17T10:28:46.531Z,27.92
2023-05-17T10:31:51.371Z,27.48
2023-05-17T10:35:05.999Z,27.53
2023-05-17T10:38:13.718Z,27.84
2023-05-17T10:41:18.416Z,28.03
2023-05-17T10:44:20.767Z,28.15
2023-05-17T10:47:31.964Z,28.14
2023-05-17T10:50:41.142Z,28.36
2023-05-17T10:54:12.692Z,28.38
2023-05-17T10:57:39.034Z,28.35
2023-05-17T11:00:51.667Z,28.08
2023-05-17T11:03:55.679Z,28.22
2023-05-17T11:07:32.389Z,28.40
2023-05-17T11:10:36.216Z,28.28
2023-05-17T11:13:52.573Z,28.33
2023-05-17T11:16:58.318Z,28.41
2023-05-17T11:20:13.689Z,28.46
2023-05-17T11:23:22.744Z,28.35
2023-05-17T11:26:45.730Z,28.29
2023-05-17T11:29:50.328Z,28.39
2023-05-17T11:33:02.633Z,28.15
2023-05-17T11:36:07.591Z,28.18
2023-05-17T11:39:11.024Z,27.84
2023-05-17T11:42:25.282Z,27.68
2023-05-17T11:45:28.154Z,27.78
2023-05-17T11:48:31.121Z,28.03
2023-05-17T11:51:33.804Z,28.11
2023-05-17T11:54:40.340Z,28.37
2023-05-17T11:57:43.939Z,28.54
2023-05-17T12:00:46.424Z,28.60
2023-05-17T12:03:57.192Z,28.72
2023-05-17T12:06:59.215Z,28.46
2023-05-17T12:10:01.169Z,28.33
2023-05-17T12:13:04.081Z,28.49
2023-05-17T12:16:17.485Z,28.31
2023-05-17T12:19:22.346Z,28.29
2023-05-17T12:22:24.376Z,28.33
2023-05-17T12:25:28.099Z,28.37
2023-05-17T12:28:30.210Z,28.39
2023-05-17T12:31:39.509Z,28.41
2023-05-17T12:34:41.946Z,28.51
2023-05-17T12:37:44.302Z,28.61
2023-05-17T12:44:52.340Z,28.68
2023-05-17T12:47:54.353Z,28.50
2023-05-17T12:50:56.524Z,28.40
2023-05-17T12:54:01.269Z,28.43
2023-05-17T12:57:15.389Z,28.38
2023-05-17T13:00:18.236Z,28.38
2023-05-17T13:03:20.344Z,28.44
2023-05-17T13:06:22.665Z,28.35
2023-05-17T13:09:27.999Z,28.21
2023-05-17T13:12:29.987Z,28.05
2023-05-17T13:15:33.488Z,28.03
2023-05-17T13:18:49.098Z,27.92
2023-05-17T13:21:51.082Z,27.59
2023-05-17T13:24:53.862Z,27.43
2023-05-17T13:27:55.953Z,27.51
2023-05-17T13:30:57.887Z,27.42
2023-05-17T13:33:59.829Z,27.50
2023-05-17T13:37:01.979Z,27.43
2023-05-17T13:40:04.925Z,27.30
2023-05-17T13:43:09.765Z,27.35
2023-05-17T13:46:11.865Z,27.36
2023-05-17T13:49:14.250Z,27.32
2023-05-17T13:52:18.681Z,27.24
2023-05-17T13:55:20.808Z,27.09
2023-05-17T13:58:22.691Z,27.29
2023-05-17T14:01:25.025Z,27.25
2023-05-17T14:04:26.942Z,27.08
2023-05-17T14:07:28.879Z,27.01
2023-05-17T14:10:31.110Z,26.95
2023-05-17T14:13:33.018Z,27.03
2023-05-17T14:16:34.916Z,27.09
2023-05-17T14:19:36.858Z,27.06
2023-05-17T14:22:38.846Z,27.06
2023-05-17T14:25:43.740Z,27.01
2023-05-17T14:28:45.782Z,26.80
2023-05-17T14:31:47.826Z,26.74
2023-05-17T14:34:49.847Z,26.86
2023-05-17T14:37:51.789Z,27.09
2023-05-17T14:40:53.649Z,27.29
2023-05-17T14:43:55.829Z,27.45
2023-05-17T14:46:57.745Z,27.36
2023-05-17T14:49:59.554Z,27.19
2023-05-17T14:53:01.690Z,27.19
2023-05-17T14:56:03.610Z,27.07
2023-05-17T14:59:05.426Z,26.79
2023-05-17T15:02:07.840Z,26.72
2023-05-17T15:08:14.337Z,26.55
2023-05-17T15:11:16.279Z,26.53
2023-05-17T15:14:24.898Z,26.37
2023-05-17T15:17:27.129Z,26.54
2023-05-17T15:20:29.479Z,26.41
2023-05-17T15:23:31.704Z,26.22
2023-05-17T15:26:33.640Z,25.97
2023-05-17T15:29:38.257Z,25.56
2023-05-17T15:32:40.329Z,25.40
2023-05-17T15:35:43.195Z,25.15
2023-05-17T15:38:45.276Z,24.95
2023-05-17T15:41:47.555Z,24.88
2023-05-17T15:44:49.484Z,24.67
2023-05-17T15:47:51.360Z,24.55
2023-05-17T15:50:53.289Z,24.48
2023-05-17T15:53:55.918Z,24.38
2023-05-17T15:56:57.909Z,24.24
2023-05-17T15:59:59.756Z,24.15
2023-05-17T16:03:01.752Z,24.05
2023-05-17T16:06:04.580Z,23.98
2023-05-17T16:09:06.814Z,23.89
2023-05-17T16:12:08.730Z,23.79
2023-05-17T16:15:10.813Z,23.65
2023-05-17T16:18:15.323Z,23.56
2023-05-17T16:21:17.440Z,23.49
2023-05-17T16:24:21.560Z,23.39
2023-05-17T16:27:23.570Z,23.29
2023-05-17T16:30:25.649Z,23.16
2023-05-17T16:33:27.673Z,23.03
2023-05-17T16:36:29.661Z,22.94
2023-05-17T16:39:31.775Z,22.83
2023-05-17T16:42:33.659Z,22.70
2023-05-17T16:45:35.903Z,22.60
2023-05-17T16:48:37.868Z,22.47
2023-05-17T16:51:39.770Z,22.33
2023-05-17T16:54:42.197Z,22.19
2023-05-17T16:57:44.240Z,22.07
2023-05-17T17:00:46.237Z,21.95
2023-05-17T17:03:48.499Z,21.74
2023-05-17T17:06:51.417Z,21.56
2023-05-17T17:09:53.286Z,21.41
2023-05-17T17:12:55.252Z,21.26
2023-05-17T17:15:57.250Z,21.00
2023-05-17T17:18:59.601Z,20.76
2023-05-17T17:22:05.521Z,20.57
2023-05-17T17:25:07.938Z,20.41
2023-05-17T17:28:09.906Z,20.22
2023-05-17T17:31:12.104Z,20.02
2023-05-17T17:34:14.078Z,19.87
2023-05-17T17:37:16.011Z,19.70
2023-05-17T17:40:18.465Z,19.56
2023-05-17T17:43:21.431Z,19.42
2023-05-17T17:46:24.514Z,19.30
2023-05-17T17:49:26.428Z,19.14
2023-05-17T17:52:28.345Z,18.98
2023-05-17T17:55:30.382Z,18.86
2023-05-17T17:58:32.454Z,18.78
2023-05-17T18:01:37.491Z,18.70
2023-05-17T18:04:40.713Z,18.53
2023-05-17T18:07:42.790Z,18.38
2023-05-17T18:10:44.720Z,18.24
2023-05-17T18:13:47.051Z,18.14
2023-05-17T18:16:48.978Z,18.03
2023-05-17T18:19:51.116Z,17.91
2023-05-17T18:22:54.211Z,17.80
2023-05-17T18:25:56.113Z,17.71
2023-05-17T18:28:58.142Z,17.61
2023-05-17T18:32:01.745Z,17.54
2023-05-17T18:35:03.944Z,17.46
2023-05-17T18:38:05.980Z,17.35
2023-05-17T18:41:07.864Z,17.22
2023-05-17T18:44:09.764Z,17.14
2023-05-17T18:47:12.206Z,17.07
2023-05-17T18:50:14.068Z,16.97
2023-05-17T18:53:16.149Z,16.99
2023-05-17T18:56:22.937Z,16.92
2023-05-17T18:59:24.913Z,16.84
2023-05-17T19:02:26.902Z,16.77
2023-05-17T19:05:28.932Z,16.69
2023-05-17T19:08:30.791Z,16.60
2023-05-17T19:11:33.101Z,16.55
2023-05-17T19:14:35.176Z,16.44
2023-05-17T19:17:37.403Z,16.38
2023-05-17T19:20:39.407Z,16.30
2023-05-17T19:23:41.322Z,16.24
2023-05-17T19:26:43.278Z,16.18
2023-05-17T19:29:46.457Z,16.12
2023-05-17T19:32:49.855Z,16.06
2023-05-17T19:35:52.184Z,16.00
2023-05-17T19:38:54.695Z,15.94
2023-05-17T19:41:56.717Z,15.85
2023-05-17T19:44:58.630Z,15.83
2023-05-17T19:48:00.982Z,15.80
2023-05-17T19:51:03.664Z,15.76
2023-05-17T19:54:05.582Z,15.69
2023-05-17T19:57:08.158Z,15.66
2023-05-17T20:00:10.975Z,15.63
2023-05-17T20:03:12.931Z,15.56
2023-05-17T20:06:15.181Z,15.51
2023-05-17T20:09:17.147Z,15.47
2023-05-17T20:12:19.534Z,15.47
2023-05-17T20:15:22.827Z,15.42
2023-05-17T20:18:27.679Z,15.39
2023-05-17T20:21:30.040Z,15.36
2023-05-17T20:24:34.875Z,15.31
2023-05-17T20:27:36.895Z,15.30
2023-05-17T20:30:42.115Z,15.29
2023-05-17T20:33:44.619Z,15.25
2023-05-17T20:36:46.537Z,15.20
2023-05-17T20:39:48.935Z,15.15
2023-05-17T20:42:52.996Z,15.10
2023-05-17T20:45:55.400Z,15.09
2023-05-17T20:48:58.260Z,15.07
2023-05-17T20:52:03.578Z,14.98
2023-05-17T20:55:06.568Z,14.98
2023-05-17T20:58:08.554Z,14.97
2023-05-17T21:01:10.782Z,14.95
2023-05-17T21:04:14.372Z,14.90
2023-05-17T21:07:17.502Z,14.90
2023-05-17T21:10:20.718Z,14.91
2023-05-17T21:13:24.039Z,14.88
2023-05-17T21:16:26.026Z,14.84
2023-05-17T21:19:28.069Z,14.87
2023-05-17T21:22:30.059Z,14.87
2023-05-17T21:25:32.339Z,14.87
2023-05-17T21:28:35.536Z,14.86
2023-05-17T21:31:37.743Z,14.89
2023-05-17T21:34:40.051Z,14.89
2023-05-17T21:37:42.397Z,14.93
2023-05-17T21:40:44.346Z,14.93
2023-05-17T21:43:46.312Z,14.89
2023-05-17T21:46:48.285Z,14.86
2023-05-17T21:49:50.537Z,14.84
2023-05-17T21:52:52.418Z,14.87
2023-05-17T21:56:02.242Z,14.87
2023-05-17T21:59:04.862Z,14.86
2023-05-17T22:02:08.654Z,14.85
2023-05-17T22:05:11.237Z,14.82
2023-05-17T22:08:13.162Z,14.76
2023-05-17T22:11:15.103Z,14.74
2023-05-17T22:14:17.029Z,14.73
2023-05-17T22:17:19.091Z,14.70
2023-05-17T22:20:23.920Z,14.67
2023-05-17T22:23:26.574Z,14.66
2023-05-17T22:26:28.614Z,14.63
2023-05-17T22:29:30.625Z,14.64
2023-05-17T22:32:32.618Z,14.59
2023-05-17T22:35:34.636Z,14.53
2023-05-17T22:38:36.562Z,14.49
2023-05-17T22:41:38.552Z,14.43
2023-05-17T22:44:40.491Z,14.41
2023-05-17T22:47:46.931Z,14.37
2023-05-17T22:50:49.105Z,14.32
2023-05-17T22:53:51.075Z,14.27
2023-05-17T22:56:53.044Z,14.24
2023-05-17T22:59:54.954Z,14.19
2023-05-17T23:02:57.044Z,14.16
2023-05-17T23:06:05.271Z,14.13
2023-05-17T23:09:07.265Z,14.10
2023-05-17T23:12:14.283Z,14.04
2023-05-17T23:15:16.380Z,14.05
2023-05-17T23:18:18.937Z,13.99
2023-05-17T23:21:21.032Z,13.94
2023-05-17T23:24:25.966Z,13.90
2023-05-17T23:27:27.978Z,13.87
2023-05-17T23:30:30.282Z,13.82
2023-05-17T23:33:33.970Z,13.79
2023-05-17T23:36:35.888Z,13.76
2023-05-17T23:39:37.802Z,13.71
2023-05-17T23:42:40.903Z,13.66
2023-05-17T23:45:42.779Z,13.61
2023-05-17T23:48:44.747Z,13.60
2023-05-17T23:51:46.652Z,13.58
2023-05-17T23:54:48.578Z,13.52
2023-05-17T23:57:50.451Z,13.48
